Main page
METAR-TAF:

METAR-TAF

Airports :

Saint-Louis Airport

Saint-Louis, Senegal

latitude: 16-03N, longitude: 016-27W, elevation: 4 m

Current weather observation

The report was made 33 minutes ago, at 04:00 UTC
Wind 8 kt from the Northeast
Temperature 16°C
Humidity 29%
Pressure 1017 hPa
Visibility 10 km or more
no clouds below 1500 m and no cumulonimbus

METAR: GOSS 210400Z 04008KT CAVOK 16/M02 Q1017

Time: 04:33 (04:33 UTC)

Forecast

The report was made 5 hours and 3 minutes ago, at 23:30 UTC
Forecast valid from 21 at 00 UTC to 21 at 24 UTC
Wind 8 kt from the North/Northeast
Visibility 10 km or more
no clouds below 1500 m and no cumulonimbus

TAF: GOSS 202330Z 2100/2124 02008KT CAVOK

Weather observations and forecasts of more than 4000 airports (METAR and TAF reports).

The available stations are represented by yellow and red dots on the map.

Hover mouse over dot to see the name of the station.

Then click to see weather observations and forecasts.

To change the map : click on the green buttons with a black cross to zoom in, on the green button with a dash to zoom out, or on the green arrows for adjacent maps.


METAR-TAF: